sensor_id;sensor_type;location;lat;lon;timestamp;P1;durP1;ratioP1;P2;durP2;ratioP2
76978;SDS011;65911;47.502;19.148;2024-02-16T00:01:22;24.85;;;14.55;;
76978;SDS011;65911;47.502;19.148;2024-02-16T00:04:25;24.35;;;13.23;;
76978;SDS011;65911;47.502;19.148;2024-02-16T00:07:27;23.10;;;13.67;;
76978;SDS011;65911;47.502;19.148;2024-02-16T00:10:29;21.20;;;12.70;;
76978;SDS011;65911;47.502;19.148;2024-02-16T00:13:32;20.83;;;11.95;;
76978;SDS011;65911;47.502;19.148;2024-02-16T00:16:34;21.33;;;12.60;;
76978;SDS011;65911;47.502;19.148;2024-02-16T00:19:36;20.98;;;12.40;;
76978;SDS011;65911;47.502;19.148;2024-02-16T00:22:38;23.77;;;13.13;;
76978;SDS011;65911;47.502;19.148;2024-02-16T00:25:41;22.30;;;12.65;;
76978;SDS011;65911;47.502;19.148;2024-02-16T00:28:43;20.20;;;11.67;;
76978;SDS011;65911;47.502;19.148;2024-02-16T00:31:45;21.88;;;11.95;;
76978;SDS011;65911;47.502;19.148;2024-02-16T00:34:47;20.63;;;11.20;;
76978;SDS011;65911;47.502;19.148;2024-02-16T00:37:50;20.37;;;12.00;;
76978;SDS011;65911;47.502;19.148;2024-02-16T00:40:52;19.15;;;11.45;;
76978;SDS011;65911;47.502;19.148;2024-02-16T00:43:54;20.58;;;12.05;;
76978;SDS011;65911;47.502;19.148;2024-02-16T00:46:58;20.17;;;11.55;;
76978;SDS011;65911;47.502;19.148;2024-02-16T00:50:00;20.25;;;11.93;;
76978;SDS011;65911;47.502;19.148;2024-02-16T00:53:02;19.15;;;11.73;;
76978;SDS011;65911;47.502;19.148;2024-02-16T00:56:06;21.58;;;12.00;;
76978;SDS011;65911;47.502;19.148;2024-02-16T00:59:09;22.27;;;11.67;;
76978;SDS011;65911;47.502;19.148;2024-02-16T01:02:11;20.17;;;11.85;;
76978;SDS011;65911;47.502;19.148;2024-02-16T01:05:14;20.25;;;10.55;;
76978;SDS011;65911;47.502;19.148;2024-02-16T01:08:19;17.90;;;11.17;;
76978;SDS011;65911;47.502;19.148;2024-02-16T01:11:21;20.48;;;11.18;;
76978;SDS011;65911;47.502;19.148;2024-02-16T01:14:24;20.17;;;11.63;;
76978;SDS011;65911;47.502;19.148;2024-02-16T01:17:26;23.55;;;12.05;;
76978;SDS011;65911;47.502;19.148;2024-02-16T01:20:28;24.67;;;12.35;;
76978;SDS011;65911;47.502;19.148;2024-02-16T01:23:33;19.88;;;10.93;;
76978;SDS011;65911;47.502;19.148;2024-02-16T01:26:35;22.50;;;11.57;;
76978;SDS011;65911;47.502;19.148;2024-02-16T01:29:37;18.23;;;10.77;;
76978;SDS011;65911;47.502;19.148;2024-02-16T01:32:39;20.83;;;11.63;;
76978;SDS011;65911;47.502;19.148;2024-02-16T01:35:42;18.60;;;10.65;;
76978;SDS011;65911;47.502;19.148;2024-02-16T01:38:44;20.73;;;11.60;;
76978;SDS011;65911;47.502;19.148;2024-02-16T01:41:46;18.85;;;10.80;;
76978;SDS011;65911;47.502;19.148;2024-02-16T01:44:49;17.50;;;10.27;;
76978;SDS011;65911;47.502;19.148;2024-02-16T01:47:51;19.80;;;10.77;;
76978;SDS011;65911;47.502;19.148;2024-02-16T01:50:55;16.42;;;10.55;;
76978;SDS011;65911;47.502;19.148;2024-02-16T01:53:58;20.00;;;10.85;;
76978;SDS011;65911;47.502;19.148;2024-02-16T01:57:00;18.27;;;10.52;;
76978;SDS011;65911;47.502;19.148;2024-02-16T02:00:03;20.43;;;11.40;;
76978;SDS011;65911;47.502;19.148;2024-02-16T02:03:09;20.45;;;11.00;;
76978;SDS011;65911;47.502;19.148;2024-02-16T02:06:11;18.98;;;10.95;;
76978;SDS011;65911;47.502;19.148;2024-02-16T02:09:14;19.33;;;11.53;;
76978;SDS011;65911;47.502;19.148;2024-02-16T02:12:16;18.15;;;10.60;;
76978;SDS011;65911;47.502;19.148;2024-02-16T02:15:18;19.70;;;11.00;;
76978;SDS011;65911;47.502;19.148;2024-02-16T02:18:21;22.67;;;12.05;;
76978;SDS011;65911;47.502;19.148;2024-02-16T02:21:23;19.80;;;11.68;;
76978;SDS011;65911;47.502;19.148;2024-02-16T02:24:25;20.15;;;11.95;;
76978;SDS011;65911;47.502;19.148;2024-02-16T02:27:28;20.10;;;10.90;;
76978;SDS011;65911;47.502;19.148;2024-02-16T02:30:30;19.53;;;10.90;;
76978;SDS011;65911;47.502;19.148;2024-02-16T02:33:33;19.90;;;11.45;;
76978;SDS011;65911;47.502;19.148;2024-02-16T02:36:36;20.83;;;11.05;;
76978;SDS011;65911;47.502;19.148;2024-02-16T02:39:38;20.57;;;11.60;;
76978;SDS011;65911;47.502;19.148;2024-02-16T02:42:40;18.83;;;10.85;;
76978;SDS011;65911;47.502;19.148;2024-02-16T02:45:42;18.23;;;9.77;;
76978;SDS011;65911;47.502;19.148;2024-02-16T02:48:45;19.10;;;10.95;;
76978;SDS011;65911;47.502;19.148;2024-02-16T02:51:53;21.33;;;11.52;;
76978;SDS011;65911;47.502;19.148;2024-02-16T02:54:55;19.85;;;11.23;;
76978;SDS011;65911;47.502;19.148;2024-02-16T02:57:58;20.15;;;11.10;;
76978;SDS011;65911;47.502;19.148;2024-02-16T03:01:00;19.17;;;10.53;;
76978;SDS011;65911;47.502;19.148;2024-02-16T03:04:02;19.65;;;11.63;;
76978;SDS011;65911;47.502;19.148;2024-02-16T03:07:05;21.60;;;10.68;;
76978;SDS011;65911;47.502;19.148;2024-02-16T03:10:08;19.17;;;11.03;;
76978;SDS011;65911;47.502;19.148;2024-02-16T03:13:13;20.00;;;10.52;;
76978;SDS011;65911;47.502;19.148;2024-02-16T03:16:19;16.02;;;10.50;;
76978;SDS011;65911;47.502;19.148;2024-02-16T03:19:22;20.67;;;11.07;;
76978;SDS011;65911;47.502;19.148;2024-02-16T03:22:24;17.98;;;11.07;;
76978;SDS011;65911;47.502;19.148;2024-02-16T03:25:26;18.33;;;10.68;;
76978;SDS011;65911;47.502;19.148;2024-02-16T03:28:29;16.83;;;10.90;;
76978;SDS011;65911;47.502;19.148;2024-02-16T03:31:31;16.00;;;9.57;;
76978;SDS011;65911;47.502;19.148;2024-02-16T03:34:35;19.00;;;11.00;;
76978;SDS011;65911;47.502;19.148;2024-02-16T03:37:37;18.58;;;10.85;;
76978;SDS011;65911;47.502;19.148;2024-02-16T03:40:39;18.63;;;10.97;;
76978;SDS011;65911;47.502;19.148;2024-02-16T03:43:41;20.02;;;10.07;;
76978;SDS011;65911;47.502;19.148;2024-02-16T03:46:44;19.33;;;11.20;;
76978;SDS011;65911;47.502;19.148;2024-02-16T03:49:46;19.63;;;10.57;;
76978;SDS011;65911;47.502;19.148;2024-02-16T03:52:49;20.17;;;11.20;;
76978;SDS011;65911;47.502;19.148;2024-02-16T03:55:51;19.45;;;11.00;;
76978;SDS011;65911;47.502;19.148;2024-02-16T03:58:53;19.23;;;11.70;;
76978;SDS011;65911;47.502;19.148;2024-02-16T04:01:55;18.30;;;10.73;;
76978;SDS011;65911;47.502;19.148;2024-02-16T04:04:58;18.88;;;10.95;;
76978;SDS011;65911;47.502;19.148;2024-02-16T04:08:00;20.85;;;11.60;;
76978;SDS011;65911;47.502;19.148;2024-02-16T04:11:07;18.43;;;11.53;;
76978;SDS011;65911;47.502;19.148;2024-02-16T04:14:09;20.08;;;11.65;;
76978;SDS011;65911;47.502;19.148;2024-02-16T04:17:13;18.27;;;10.60;;
76978;SDS011;65911;47.502;19.148;2024-02-16T04:20:15;19.58;;;10.77;;
76978;SDS011;65911;47.502;19.148;2024-02-16T04:23:18;20.00;;;11.25;;
76978;SDS011;65911;47.502;19.148;2024-02-16T04:26:20;19.42;;;11.02;;
76978;SDS011;65911;47.502;19.148;2024-02-16T04:29:22;19.23;;;10.98;;
76978;SDS011;65911;47.502;19.148;2024-02-16T04:32:24;20.77;;;11.93;;
76978;SDS011;65911;47.502;19.148;2024-02-16T04:35:27;19.48;;;11.20;;
76978;SDS011;65911;47.502;19.148;2024-02-16T04:38:29;22.55;;;11.48;;
76978;SDS011;65911;47.502;19.148;2024-02-16T04:41:31;18.53;;;11.13;;
76978;SDS011;65911;47.502;19.148;2024-02-16T04:44:36;20.50;;;11.43;;
76978;SDS011;65911;47.502;19.148;2024-02-16T04:47:41;18.40;;;11.48;;
76978;SDS011;65911;47.502;19.148;2024-02-16T04:50:43;22.33;;;11.75;;
76978;SDS011;65911;47.502;19.148;2024-02-16T04:53:45;18.63;;;11.65;;
76978;SDS011;65911;47.502;19.148;2024-02-16T04:56:48;17.33;;;10.60;;
76978;SDS011;65911;47.502;19.148;2024-02-16T04:59:50;19.73;;;11.60;;
76978;SDS011;65911;47.502;19.148;2024-02-16T05:02:53;20.43;;;11.40;;
76978;SDS011;65911;47.502;19.148;2024-02-16T05:05:56;19.00;;;11.27;;
76978;SDS011;65911;47.502;19.148;2024-02-16T05:08:59;21.48;;;11.57;;
76978;SDS011;65911;47.502;19.148;2024-02-16T05:12:01;20.60;;;11.53;;
76978;SDS011;65911;47.502;19.148;2024-02-16T05:15:04;19.75;;;12.10;;
76978;SDS011;65911;47.502;19.148;2024-02-16T05:18:07;20.40;;;11.55;;
76978;SDS011;65911;47.502;19.148;2024-02-16T05:21:10;18.45;;;11.23;;
76978;SDS011;65911;47.502;19.148;2024-02-16T05:24:12;19.88;;;12.57;;
76978;SDS011;65911;47.502;19.148;2024-02-16T05:27:14;20.38;;;11.95;;
76978;SDS011;65911;47.502;19.148;2024-02-16T05:30:17;21.17;;;11.65;;
76978;SDS011;65911;47.502;19.148;2024-02-16T05:33:19;21.33;;;11.93;;
76978;SDS011;65911;47.502;19.148;2024-02-16T05:36:22;24.75;;;12.48;;
76978;SDS011;65911;47.502;19.148;2024-02-16T05:39:27;22.10;;;12.35;;
76978;SDS011;65911;47.502;19.148;2024-02-16T05:42:33;20.00;;;12.17;;
76978;SDS011;65911;47.502;19.148;2024-02-16T05:45:36;20.38;;;11.98;;
76978;SDS011;65911;47.502;19.148;2024-02-16T05:48:38;21.45;;;11.93;;
76978;SDS011;65911;47.502;19.148;2024-02-16T05:51:42;21.65;;;12.10;;
76978;SDS011;65911;47.502;19.148;2024-02-16T05:54:54;20.27;;;12.32;;
76978;SDS011;65911;47.502;19.148;2024-02-16T05:57:56;22.40;;;12.80;;
76978;SDS011;65911;47.502;19.148;2024-02-16T06:00:59;24.23;;;13.13;;
76978;SDS011;65911;47.502;19.148;2024-02-16T06:04:01;20.33;;;11.67;;
76978;SDS011;65911;47.502;19.148;2024-02-16T06:07:03;24.70;;;13.30;;
76978;SDS011;65911;47.502;19.148;2024-02-16T06:10:06;20.80;;;12.18;;
76978;SDS011;65911;47.502;19.148;2024-02-16T06:13:13;20.33;;;12.37;;
76978;SDS011;65911;47.502;19.148;2024-02-16T06:16:15;21.65;;;12.77;;
76978;SDS011;65911;47.502;19.148;2024-02-16T06:19:18;23.40;;;13.23;;
76978;SDS011;65911;47.502;19.148;2024-02-16T06:22:20;21.65;;;12.60;;
76978;SDS011;65911;47.502;19.148;2024-02-16T06:25:22;26.02;;;14.02;;
76978;SDS011;65911;47.502;19.148;2024-02-16T06:28:24;25.05;;;13.88;;
76978;SDS011;65911;47.502;19.148;2024-02-16T06:31:27;25.65;;;14.57;;
76978;SDS011;65911;47.502;19.148;2024-02-16T06:34:29;26.77;;;13.97;;
76978;SDS011;65911;47.502;19.148;2024-02-16T06:37:32;25.60;;;13.25;;
76978;SDS011;65911;47.502;19.148;2024-02-16T06:40:34;26.52;;;13.70;;
76978;SDS011;65911;47.502;19.148;2024-02-16T06:43:37;23.90;;;13.87;;
76978;SDS011;65911;47.502;19.148;2024-02-16T06:46:39;25.90;;;13.27;;
76978;SDS011;65911;47.502;19.148;2024-02-16T06:49:41;26.60;;;13.32;;
76978;SDS011;65911;47.502;19.148;2024-02-16T06:52:44;22.17;;;14.07;;
76978;SDS011;65911;47.502;19.148;2024-02-16T06:55:46;28.73;;;13.68;;
76978;SDS011;65911;47.502;19.148;2024-02-16T06:58:48;27.23;;;13.80;;
76978;SDS011;65911;47.502;19.148;2024-02-16T07:01:51;24.27;;;13.52;;
76978;SDS011;65911;47.502;19.148;2024-02-16T07:04:53;21.23;;;12.60;;
76978;SDS011;65911;47.502;19.148;2024-02-16T07:07:55;25.92;;;13.02;;
76978;SDS011;65911;47.502;19.148;2024-02-16T07:10:58;24.80;;;13.05;;
76978;SDS011;65911;47.502;19.148;2024-02-16T07:14:00;23.43;;;13.00;;
76978;SDS011;65911;47.502;19.148;2024-02-16T07:17:04;20.85;;;12.23;;
76978;SDS011;65911;47.502;19.148;2024-02-16T07:20:09;25.58;;;12.40;;
76978;SDS011;65911;47.502;19.148;2024-02-16T07:23:12;22.52;;;12.95;;
76978;SDS011;65911;47.502;19.148;2024-02-16T07:26:14;24.05;;;11.88;;
76978;SDS011;65911;47.502;19.148;2024-02-16T07:29:18;20.70;;;11.27;;
76978;SDS011;65911;47.502;19.148;2024-02-16T07:32:21;24.33;;;11.63;;
76978;SDS011;65911;47.502;19.148;2024-02-16T07:35:23;17.73;;;10.50;;
76978;SDS011;65911;47.502;19.148;2024-02-16T07:38:26;19.95;;;11.23;;
76978;SDS011;65911;47.502;19.148;2024-02-16T07:41:30;17.85;;;10.82;;
76978;SDS011;65911;47.502;19.148;2024-02-16T07:44:32;18.70;;;10.93;;
76978;SDS011;65911;47.502;19.148;2024-02-16T07:47:35;18.30;;;10.52;;
76978;SDS011;65911;47.502;19.148;2024-02-16T07:50:37;21.60;;;10.88;;
76978;SDS011;65911;47.502;19.148;2024-02-16T07:53:39;18.17;;;10.73;;
76978;SDS011;65911;47.502;19.148;2024-02-16T07:56:44;22.95;;;10.70;;
76978;SDS011;65911;47.502;19.148;2024-02-16T07:59:46;17.40;;;10.88;;
76978;SDS011;65911;47.502;19.148;2024-02-16T08:02:48;17.67;;;9.98;;
76978;SDS011;65911;47.502;19.148;2024-02-16T08:05:50;16.47;;;9.40;;
76978;SDS011;65911;47.502;19.148;2024-02-16T08:08:54;18.33;;;10.75;;
76978;SDS011;65911;47.502;19.148;2024-02-16T08:11:56;20.02;;;10.30;;
76978;SDS011;65911;47.502;19.148;2024-02-16T08:14:59;16.73;;;9.97;;
76978;SDS011;65911;47.502;19.148;2024-02-16T08:18:03;19.83;;;10.00;;
76978;SDS011;65911;47.502;19.148;2024-02-16T08:21:05;17.08;;;9.45;;
76978;SDS011;65911;47.502;19.148;2024-02-16T08:24:08;16.77;;;9.73;;
76978;SDS011;65911;47.502;19.148;2024-02-16T08:27:10;18.60;;;9.32;;
76978;SDS011;65911;47.502;19.148;2024-02-16T08:30:17;18.08;;;10.07;;
76978;SDS011;65911;47.502;19.148;2024-02-16T08:33:19;17.42;;;9.20;;
76978;SDS011;65911;47.502;19.148;2024-02-16T08:36:22;15.27;;;7.60;;
76978;SDS011;65911;47.502;19.148;2024-02-16T08:39:30;13.02;;;7.70;;
76978;SDS011;65911;47.502;19.148;2024-02-16T08:42:32;12.93;;;6.90;;
76978;SDS011;65911;47.502;19.148;2024-02-16T08:45:35;15.37;;;6.80;;
76978;SDS011;65911;47.502;19.148;2024-02-16T08:48:37;12.10;;;6.63;;
76978;SDS011;65911;47.502;19.148;2024-02-16T08:51:41;10.63;;;6.13;;
76978;SDS011;65911;47.502;19.148;2024-02-16T08:54:44;12.02;;;5.35;;
76978;SDS011;65911;47.502;19.148;2024-02-16T08:57:46;10.23;;;5.82;;
76978;SDS011;65911;47.502;19.148;2024-02-16T09:00:50;9.70;;;6.20;;
76978;SDS011;65911;47.502;19.148;2024-02-16T09:03:52;11.95;;;6.07;;
76978;SDS011;65911;47.502;19.148;2024-02-16T09:06:57;10.20;;;5.57;;
76978;SDS011;65911;47.502;19.148;2024-02-16T09:09:59;8.38;;;5.00;;
76978;SDS011;65911;47.502;19.148;2024-02-16T09:13:02;10.38;;;5.45;;
76978;SDS011;65911;47.502;19.148;2024-02-16T09:16:04;8.20;;;4.73;;
76978;SDS011;65911;47.502;19.148;2024-02-16T09:19:07;10.30;;;5.65;;
76978;SDS011;65911;47.502;19.148;2024-02-16T09:22:09;11.70;;;5.72;;
76978;SDS011;65911;47.502;19.148;2024-02-16T09:25:15;11.15;;;5.15;;
76978;SDS011;65911;47.502;19.148;2024-02-16T09:28:18;11.38;;;5.53;;
76978;SDS011;65911;47.502;19.148;2024-02-16T09:31:30;10.93;;;5.40;;
76978;SDS011;65911;47.502;19.148;2024-02-16T09:34:32;11.23;;;5.70;;
76978;SDS011;65911;47.502;19.148;2024-02-16T09:37:35;9.07;;;4.80;;
76978;SDS011;65911;47.502;19.148;2024-02-16T09:40:39;11.90;;;6.00;;
76978;SDS011;65911;47.502;19.148;2024-02-16T09:43:42;9.38;;;5.20;;
76978;SDS011;65911;47.502;19.148;2024-02-16T09:46:44;10.73;;;6.00;;
76978;SDS011;65911;47.502;19.148;2024-02-16T09:49:47;10.98;;;5.50;;
76978;SDS011;65911;47.502;19.148;2024-02-16T09:52:50;8.15;;;5.07;;
76978;SDS011;65911;47.502;19.148;2024-02-16T09:55:52;9.57;;;5.38;;
76978;SDS011;65911;47.502;19.148;2024-02-16T09:58:55;7.85;;;4.93;;
76978;SDS011;65911;47.502;19.148;2024-02-16T10:02:01;10.20;;;5.50;;
76978;SDS011;65911;47.502;19.148;2024-02-16T10:05:09;6.70;;;4.75;;
76978;SDS011;65911;47.502;19.148;2024-02-16T10:08:13;7.97;;;4.65;;
76978;SDS011;65911;47.502;19.148;2024-02-16T10:11:16;8.32;;;4.90;;
76978;SDS011;65911;47.502;19.148;2024-02-16T10:14:22;6.82;;;4.55;;
76978;SDS011;65911;47.502;19.148;2024-02-16T10:17:26;11.32;;;5.45;;
76978;SDS011;65911;47.502;19.148;2024-02-16T10:20:29;8.40;;;5.07;;
76978;SDS011;65911;47.502;19.148;2024-02-16T10:23:31;8.23;;;4.17;;
76978;SDS011;65911;47.502;19.148;2024-02-16T10:26:37;9.90;;;5.45;;
76978;SDS011;65911;47.502;19.148;2024-02-16T10:29:40;9.13;;;5.57;;
76978;SDS011;65911;47.502;19.148;2024-02-16T10:32:53;9.30;;;5.43;;
76978;SDS011;65911;47.502;19.148;2024-02-16T10:35:56;8.40;;;4.82;;
76978;SDS011;65911;47.502;19.148;2024-02-16T10:39:02;8.05;;;5.00;;
76978;SDS011;65911;47.502;19.148;2024-02-16T10:42:10;9.85;;;5.30;;
76978;SDS011;65911;47.502;19.148;2024-02-16T10:45:15;6.78;;;4.07;;
76978;SDS011;65911;47.502;19.148;2024-02-16T10:48:17;10.85;;;5.13;;
76978;SDS011;65911;47.502;19.148;2024-02-16T10:51:23;7.55;;;4.53;;
76978;SDS011;65911;47.502;19.148;2024-02-16T10:54:28;9.13;;;5.23;;
76978;SDS011;65911;47.502;19.148;2024-02-16T10:57:35;8.27;;;4.85;;
76978;SDS011;65911;47.502;19.148;2024-02-16T11:00:53;10.13;;;5.60;;
76978;SDS011;65911;47.502;19.148;2024-02-16T11:04:00;11.80;;;5.57;;
76978;SDS011;65911;47.502;19.148;2024-02-16T11:07:11;9.57;;;5.07;;
76978;SDS011;65911;47.502;19.148;2024-02-16T11:10:14;8.82;;;5.30;;
76978;SDS011;65911;47.502;19.148;2024-02-16T11:13:21;8.88;;;5.50;;
76978;SDS011;65911;47.502;19.148;2024-02-16T11:16:24;9.52;;;5.70;;
76978;SDS011;65911;47.502;19.148;2024-02-16T11:19:29;10.35;;;5.72;;
76978;SDS011;65911;47.502;19.148;2024-02-16T11:22:32;9.38;;;5.72;;
76978;SDS011;65911;47.502;19.148;2024-02-16T11:25:39;11.83;;;6.13;;
76978;SDS011;65911;47.502;19.148;2024-02-16T11:28:41;10.55;;;6.05;;
76978;SDS011;65911;47.502;19.148;2024-02-16T11:31:44;9.93;;;5.85;;
76978;SDS011;65911;47.502;19.148;2024-02-16T11:34:46;11.53;;;6.50;;
76978;SDS011;65911;47.502;19.148;2024-02-16T11:37:49;10.18;;;5.60;;
76978;SDS011;65911;47.502;19.148;2024-02-16T11:40:53;8.68;;;5.65;;
76978;SDS011;65911;47.502;19.148;2024-02-16T11:44:01;11.82;;;6.13;;
76978;SDS011;65911;47.502;19.148;2024-02-16T11:47:03;11.68;;;6.50;;
76978;SDS011;65911;47.502;19.148;2024-02-16T11:50:08;13.30;;;6.28;;
76978;SDS011;65911;47.502;19.148;2024-02-16T11:53:17;11.85;;;6.45;;
76978;SDS011;65911;47.502;19.148;2024-02-16T11:56:23;11.63;;;6.20;;
76978;SDS011;65911;47.502;19.148;2024-02-16T11:59:26;9.60;;;5.65;;
76978;SDS011;65911;47.502;19.148;2024-02-16T12:02:29;9.30;;;5.35;;
76978;SDS011;65911;47.502;19.148;2024-02-16T12:05:31;10.90;;;5.20;;
76978;SDS011;65911;47.502;19.148;2024-02-16T12:08:34;9.55;;;5.20;;
76978;SDS011;65911;47.502;19.148;2024-02-16T12:11:36;8.50;;;5.00;;
76978;SDS011;65911;47.502;19.148;2024-02-16T12:14:39;14.80;;;5.32;;
76978;SDS011;65911;47.502;19.148;2024-02-16T12:17:41;9.57;;;4.65;;
76978;SDS011;65911;47.502;19.148;2024-02-16T12:20:43;10.13;;;4.50;;
76978;SDS011;65911;47.502;19.148;2024-02-16T12:23:49;10.52;;;4.68;;
76978;SDS011;65911;47.502;19.148;2024-02-16T12:26:51;8.60;;;4.60;;
76978;SDS011;65911;47.502;19.148;2024-02-16T12:29:54;12.15;;;4.50;;
76978;SDS011;65911;47.502;19.148;2024-02-16T12:32:56;8.00;;;4.25;;
76978;SDS011;65911;47.502;19.148;2024-02-16T12:35:58;5.97;;;3.80;;
76978;SDS011;65911;47.502;19.148;2024-02-16T12:39:02;8.23;;;3.78;;
76978;SDS011;65911;47.502;19.148;2024-02-16T12:42:14;6.68;;;4.18;;
76978;SDS011;65911;47.502;19.148;2024-02-16T12:45:16;10.82;;;4.38;;
76978;SDS011;65911;47.502;19.148;2024-02-16T12:48:19;5.70;;;3.40;;
76978;SDS011;65911;47.502;19.148;2024-02-16T12:51:22;6.75;;;4.13;;
76978;SDS011;65911;47.502;19.148;2024-02-16T12:54:25;8.15;;;3.67;;
76978;SDS011;65911;47.502;19.148;2024-02-16T12:57:27;8.23;;;3.43;;
76978;SDS011;65911;47.502;19.148;2024-02-16T13:00:31;4.78;;;3.45;;
76978;SDS011;65911;47.502;19.148;2024-02-16T13:03:33;6.47;;;3.60;;
76978;SDS011;65911;47.502;19.148;2024-02-16T13:06:36;6.30;;;3.50;;
76978;SDS011;65911;47.502;19.148;2024-02-16T13:09:39;4.72;;;3.40;;
76978;SDS011;65911;47.502;19.148;2024-02-16T13:12:42;6.88;;;3.83;;
76978;SDS011;65911;47.502;19.148;2024-02-16T13:15:45;7.53;;;3.80;;
76978;SDS011;65911;47.502;19.148;2024-02-16T13:18:49;7.03;;;3.50;;
76978;SDS011;65911;47.502;19.148;2024-02-16T13:21:51;8.38;;;3.67;;
76978;SDS011;65911;47.502;19.148;2024-02-16T13:24:54;6.32;;;3.15;;
76978;SDS011;65911;47.502;19.148;2024-02-16T13:27:57;4.83;;;3.13;;
76978;SDS011;65911;47.502;19.148;2024-02-16T13:30:59;4.53;;;3.28;;
76978;SDS011;65911;47.502;19.148;2024-02-16T13:34:04;3.75;;;2.97;;
76978;SDS011;65911;47.502;19.148;2024-02-16T13:37:06;6.27;;;3.40;;
76978;SDS011;65911;47.502;19.148;2024-02-16T13:40:08;5.68;;;3.50;;
76978;SDS011;65911;47.502;19.148;2024-02-16T13:43:13;4.03;;;2.83;;
76978;SDS011;65911;47.502;19.148;2024-02-16T13:46:16;7.53;;;3.63;;
76978;SDS011;65911;47.502;19.148;2024-02-16T13:49:19;5.30;;;2.97;;
76978;SDS011;65911;47.502;19.148;2024-02-16T13:52:21;5.63;;;3.22;;
76978;SDS011;65911;47.502;19.148;2024-02-16T13:55:24;4.78;;;3.40;;
76978;SDS011;65911;47.502;19.148;2024-02-16T13:58:28;5.07;;;3.60;;
76978;SDS011;65911;47.502;19.148;2024-02-16T14:01:30;7.53;;;3.53;;
76978;SDS011;65911;47.502;19.148;2024-02-16T14:04:33;5.35;;;3.17;;
76978;SDS011;65911;47.502;19.148;2024-02-16T14:07:35;5.30;;;3.13;;
76978;SDS011;65911;47.502;19.148;2024-02-16T14:10:51;8.60;;;3.42;;
76978;SDS011;65911;47.502;19.148;2024-02-16T14:13:53;4.15;;;3.05;;
76978;SDS011;65911;47.502;19.148;2024-02-16T14:16:55;4.63;;;3.28;;
76978;SDS011;65911;47.502;19.148;2024-02-16T14:19:58;5.93;;;3.10;;
76978;SDS011;65911;47.502;19.148;2024-02-16T14:23:01;5.90;;;3.58;;
76978;SDS011;65911;47.502;19.148;2024-02-16T14:26:06;4.03;;;2.88;;
76978;SDS011;65911;47.502;19.148;2024-02-16T14:29:08;5.50;;;3.17;;
76978;SDS011;65911;47.502;19.148;2024-02-16T14:32:10;6.45;;;3.83;;
76978;SDS011;65911;47.502;19.148;2024-02-16T14:35:12;8.75;;;3.58;;
76978;SDS011;65911;47.502;19.148;2024-02-16T14:38:15;6.97;;;3.80;;
76978;SDS011;65911;47.502;19.148;2024-02-16T14:41:17;5.93;;;3.72;;
76978;SDS011;65911;47.502;19.148;2024-02-16T14:44:19;6.07;;;3.80;;
76978;SDS011;65911;47.502;19.148;2024-02-16T14:47:22;5.82;;;3.75;;
76978;SDS011;65911;47.502;19.148;2024-02-16T14:50:25;7.82;;;3.80;;
76978;SDS011;65911;47.502;19.148;2024-02-16T14:53:27;5.20;;;3.63;;
76978;SDS011;65911;47.502;19.148;2024-02-16T14:56:32;5.80;;;3.25;;
76978;SDS011;65911;47.502;19.148;2024-02-16T14:59:34;5.07;;;3.30;;
76978;SDS011;65911;47.502;19.148;2024-02-16T15:02:36;7.63;;;3.67;;
76978;SDS011;65911;47.502;19.148;2024-02-16T15:05:40;7.65;;;3.25;;
76978;SDS011;65911;47.502;19.148;2024-02-16T15:08:43;5.87;;;4.07;;
76978;SDS011;65911;47.502;19.148;2024-02-16T15:11:45;6.95;;;3.95;;
76978;SDS011;65911;47.502;19.148;2024-02-16T15:14:47;4.68;;;3.65;;
76978;SDS011;65911;47.502;19.148;2024-02-16T15:17:49;7.97;;;4.50;;
76978;SDS011;65911;47.502;19.148;2024-02-16T15:20:52;5.78;;;4.13;;
76978;SDS011;65911;47.502;19.148;2024-02-16T15:23:56;6.95;;;3.88;;
76978;SDS011;65911;47.502;19.148;2024-02-16T15:26:58;10.02;;;4.60;;
76978;SDS011;65911;47.502;19.148;2024-02-16T15:30:01;7.07;;;3.97;;
76978;SDS011;65911;47.502;19.148;2024-02-16T15:33:04;8.73;;;4.50;;
76978;SDS011;65911;47.502;19.148;2024-02-16T15:36:07;8.85;;;5.60;;
76978;SDS011;65911;47.502;19.148;2024-02-16T15:39:10;10.40;;;6.03;;
76978;SDS011;65911;47.502;19.148;2024-02-16T15:42:17;9.85;;;6.13;;
76978;SDS011;65911;47.502;19.148;2024-02-16T15:45:20;10.60;;;5.90;;
76978;SDS011;65911;47.502;19.148;2024-02-16T15:48:22;9.55;;;6.28;;
76978;SDS011;65911;47.502;19.148;2024-02-16T15:51:25;13.60;;;7.63;;
76978;SDS011;65911;47.502;19.148;2024-02-16T15:54:27;12.13;;;6.90;;
76978;SDS011;65911;47.502;19.148;2024-02-16T15:57:29;12.88;;;7.47;;
76978;SDS011;65911;47.502;19.148;2024-02-16T16:00:31;11.20;;;6.87;;
76978;SDS011;65911;47.502;19.148;2024-02-16T16:03:34;9.63;;;6.75;;
76978;SDS011;65911;47.502;19.148;2024-02-16T16:06:36;12.95;;;7.18;;
76978;SDS011;65911;47.502;19.148;2024-02-16T16:09:38;10.87;;;7.07;;
76978;SDS011;65911;47.502;19.148;2024-02-16T16:12:40;13.02;;;7.40;;
76978;SDS011;65911;47.502;19.148;2024-02-16T16:15:43;12.02;;;7.60;;
76978;SDS011;65911;47.502;19.148;2024-02-16T16:18:48;13.10;;;7.50;;
76978;SDS011;65911;47.502;19.148;2024-02-16T16:21:50;12.52;;;7.30;;
76978;SDS011;65911;47.502;19.148;2024-02-16T16:24:53;12.60;;;7.43;;
76978;SDS011;65911;47.502;19.148;2024-02-16T16:27:55;12.45;;;7.25;;
76978;SDS011;65911;47.502;19.148;2024-02-16T16:30:57;13.07;;;7.50;;
76978;SDS011;65911;47.502;19.148;2024-02-16T16:33:59;15.68;;;8.25;;
76978;SDS011;65911;47.502;19.148;2024-02-16T16:37:02;13.98;;;8.32;;
76978;SDS011;65911;47.502;19.148;2024-02-16T16:40:04;13.43;;;8.27;;
76978;SDS011;65911;47.502;19.148;2024-02-16T16:43:07;13.73;;;7.78;;
76978;SDS011;65911;47.502;19.148;2024-02-16T16:46:09;14.50;;;8.80;;
76978;SDS011;65911;47.502;19.148;2024-02-16T16:49:12;17.55;;;9.35;;
76978;SDS011;65911;47.502;19.148;2024-02-16T16:52:14;14.65;;;9.55;;
76978;SDS011;65911;47.502;19.148;2024-02-16T16:55:16;17.17;;;10.40;;
76978;SDS011;65911;47.502;19.148;2024-02-16T16:58:18;18.63;;;10.45;;
76978;SDS011;65911;47.502;19.148;2024-02-16T17:01:21;20.50;;;9.53;;
76978;SDS011;65911;47.502;19.148;2024-02-16T17:04:23;16.35;;;9.18;;
76978;SDS011;65911;47.502;19.148;2024-02-16T17:07:25;18.95;;;9.95;;
76978;SDS011;65911;47.502;19.148;2024-02-16T17:10:27;18.67;;;10.10;;
76978;SDS011;65911;47.502;19.148;2024-02-16T17:13:31;19.75;;;9.88;;
76978;SDS011;65911;47.502;19.148;2024-02-16T17:16:34;17.42;;;10.00;;
76978;SDS011;65911;47.502;19.148;2024-02-16T17:19:36;19.83;;;10.30;;
76978;SDS011;65911;47.502;19.148;2024-02-16T17:22:39;18.65;;;10.43;;
76978;SDS011;65911;47.502;19.148;2024-02-16T17:25:41;19.70;;;10.13;;
76978;SDS011;65911;47.502;19.148;2024-02-16T17:28:43;16.95;;;9.60;;
76978;SDS011;65911;47.502;19.148;2024-02-16T17:31:46;15.30;;;9.60;;
76978;SDS011;65911;47.502;19.148;2024-02-16T17:34:48;16.15;;;8.88;;
76978;SDS011;65911;47.502;19.148;2024-02-16T17:37:50;18.52;;;10.05;;
76978;SDS011;65911;47.502;19.148;2024-02-16T17:40:54;18.17;;;9.00;;
76978;SDS011;65911;47.502;19.148;2024-02-16T17:43:56;17.58;;;9.50;;
76978;SDS011;65911;47.502;19.148;2024-02-16T17:46:59;15.65;;;9.38;;